Time;durP1;ratioP1;P1;durP2;ratioP2;P2;SDS_P1;SDS_P2;PMS_P1;PMS_P2;Temp;Humidity;BMP_temperature;BMP_pressure;BME280_temperature;BME280_humidity;BME280_pressure;Samples;Min_cycle;Max_cycle;Signal;HPM_P1;HPM_P2
2022/11/08 00:03:51;;;;;;;3.28;2.70;;;;;;;20.56;50.74;96977.28;10525088;28;20056;-44
2022/11/08 00:14:49;;;;;;;2.53;2.33;;;;;;;20.55;50.85;96973.00;10510681;28;20060;-46
2022/11/08 00:20:09;;;;;;;2.92;2.60;;;;;;;20.53;50.97;96975.22;10544097;28;20514;-43
2022/11/08 00:25:29;;;;;;;3.40;2.50;;;;;;;20.52;50.98;96968.22;10541504;28;20407;-44
2022/11/08 00:30:48;;;;;;;2.75;2.42;;;;;;;20.50;50.88;96976.69;10542145;28;20048;-47
2022/11/08 00:36:08;;;;;;;2.65;2.45;;;;;;;20.50;50.99;96970.47;10532538;28;20083;-45
2022/11/08 00:41:27;;;;;;;2.42;2.22;;;;;;;20.48;51.04;96981.63;10524408;28;20047;-46
2022/11/08 00:46:47;;;;;;;2.75;2.40;;;;;;;20.47;50.95;96981.94;10524052;28;20059;-45
2022/11/08 00:52:07;;;;;;;2.03;1.77;;;;;;;20.45;51.05;96978.78;10531572;28;20047;-45
2022/11/08 00:57:26;;;;;;;2.10;2.00;;;;;;;20.44;51.09;96964.44;10515699;28;20052;-44
2022/11/08 01:02:46;;;;;;;2.28;2.08;;;;;;;20.43;51.00;96970.97;10537608;28;20400;-48
2022/11/08 01:08:05;;;;;;;2.42;2.15;;;;;;;20.43;51.07;96970.97;10534377;28;20109;-45
2022/11/08 01:13:25;;;;;;;2.30;2.08;;;;;;;20.41;51.14;96973.22;10530142;28;20082;-45
2022/11/08 01:18:45;;;;;;;2.10;1.90;;;;;;;20.40;51.15;96957.31;10537305;28;20509;-45
2022/11/08 01:24:05;;;;;;;2.60;2.30;;;;;;;20.39;51.18;96955.72;10521353;28;20029;-44
2022/11/08 01:29:24;;;;;;;2.35;2.15;;;;;;;20.37;51.21;96961.47;10539442;28;20044;-44
2022/11/08 01:34:44;;;;;;;2.45;1.90;;;;;;;20.37;51.20;96949.84;10530041;28;20125;-46
2022/11/08 01:40:04;;;;;;;2.30;1.92;;;;;;;20.36;51.16;96946.34;10538016;28;20407;-44
2022/11/08 01:46:18;;;;;;;1.95;1.80;;;;;;;20.33;51.20;96944.28;10526641;28;20079;-44
2022/11/08 01:51:41;;;;;;;3.13;1.95;;;;;;;20.33;51.26;96941.59;10454496;28;20423;-44
2022/11/08 01:57:04;;;;;;;2.10;1.90;;;;;;;20.30;51.20;96924.06;10497941;28;20053;-45
2022/11/08 02:02:23;;;;;;;1.95;1.80;;;;;;;20.30;51.32;96921.38;10527877;28;20500;-44
2022/11/08 02:07:43;;;;;;;2.08;1.88;;;;;;;20.29;51.34;96921.72;10522659;28;20059;-44
2022/11/08 02:13:04;;;;;;;2.22;2.03;;;;;;;20.27;51.29;96922.03;10501206;28;20048;-45
2022/11/08 02:18:26;;;;;;;1.95;1.85;;;;;;;20.26;51.34;96908.84;10482068;28;20058;-44
2022/11/08 02:23:49;;;;;;;2.40;2.20;;;;;;;20.25;51.21;96905.34;10532209;28;20618;-44
2022/11/08 02:29:23;;;;;;;2.15;1.90;;;;;;;20.26;51.40;96906.91;10534355;28;20052;-46
2022/11/08 02:34:49;;;;;;;2.40;1.65;;;;;;;20.23;51.42;96896.75;10520591;28;20060;-44
2022/11/08 02:40:09;;;;;;;2.08;1.88;;;;;;;20.21;51.39;96884.66;10497925;28;20097;-45
2022/11/08 02:45:28;;;;;;;2.05;1.70;;;;;;;20.20;51.47;96894.69;10531493;28;20117;-45
2022/11/08 02:50:48;;;;;;;3.05;1.60;;;;;;;20.18;51.49;96893.44;10526201;28;20376;-46
2022/11/08 02:56:08;;;;;;;1.63;1.50;;;;;;;20.17;51.45;96892.66;10540750;28;20094;-46
2022/11/08 03:01:27;;;;;;;2.40;2.00;;;;;;;20.16;51.48;96882.94;10529522;28;20056;-45
2022/11/08 03:06:46;;;;;;;1.70;1.60;;;;;;;20.15;51.60;96879.44;10526885;28;20056;-45
2022/11/08 03:12:06;;;;;;;1.85;1.75;;;;;;;20.13;51.50;96875.47;10515155;28;20045;-43
2022/11/08 03:17:26;;;;;;;1.52;1.42;;;;;;;20.12;51.53;96871.19;10504587;28;20060;-45
2022/11/08 03:22:45;;;;;;;1.60;1.50;;;;;;;20.12;51.56;96879.31;10531452;28;20048;-43
2022/11/08 03:28:06;;;;;;;1.70;1.60;;;;;;;20.10;51.57;96881.53;10508933;28;20052;-44
2022/11/08 03:33:26;;;;;;;2.42;1.90;;;;;;;20.09;51.48;96890.75;10519026;28;20538;-45
2022/11/08 03:38:45;;;;;;;1.67;1.58;;;;;;;20.08;51.59;96894.59;10537212;28;20051;-45
2022/11/08 03:44:04;;;;;;;1.48;1.38;;;;;;;20.06;51.59;96892.22;10521261;28;20040;-44
2022/11/08 03:49:25;;;;;;;1.60;1.50;;;;;;;20.05;51.67;96895.25;10510659;28;20047;-45
2022/11/08 03:54:44;;;;;;;2.13;1.50;;;;;;;20.04;51.57;96896.38;10524551;28;20498;-44
2022/11/08 04:00:06;;;;;;;1.73;1.63;;;;;;;20.02;51.58;96896.69;10526127;28;20056;-45
2022/11/08 04:05:31;;;;;;;1.70;1.60;;;;;;;20.01;51.61;96892.38;10543619;28;20056;-44
2022/11/08 04:10:54;;;;;;;1.58;1.48;;;;;;;20.00;51.69;96890.81;10549093;28;20067;-44
2022/11/08 04:16:13;;;;;;;1.70;1.60;;;;;;;19.98;51.64;96906.56;10542593;28;20055;-46
2022/11/08 04:21:33;;;;;;;1.80;1.52;;;;;;;19.97;51.66;96899.56;10541274;28;20059;-44
2022/11/08 04:26:52;;;;;;;1.65;1.40;;;;;;;19.95;51.67;96894.50;10531018;28;20067;-45
2022/11/08 04:32:11;;;;;;;1.65;1.55;;;;;;;19.95;51.63;96888.28;10535458;28;20063;-45
2022/11/08 04:37:31;;;;;;;1.60;1.50;;;;;;;19.94;51.55;96889.41;10538394;28;20070;-44
2022/11/08 04:42:50;;;;;;;1.77;1.60;;;;;;;19.93;51.60;96895.91;10533370;28;20052;-45
2022/11/08 04:48:09;;;;;;;1.52;1.42;;;;;;;19.93;51.68;96872.41;10529105;28;20052;-45
2022/11/08 04:53:29;;;;;;;1.88;1.73;;;;;;;19.92;51.69;96875.41;10542330;28;20051;-46
2022/11/08 04:58:51;;;;;;;1.45;1.35;;;;;;;19.89;51.65;96876.84;10547847;28;20044;-45
2022/11/08 05:04:11;;;;;;;1.50;1.40;;;;;;;19.89;51.76;96874.13;10528599;28;20411;-44
2022/11/08 05:09:30;;;;;;;1.75;1.63;;;;;;;19.87;51.67;96881.78;10521922;28;20055;-46
2022/11/08 05:14:49;;;;;;;1.60;1.50;;;;;;;19.87;51.67;96883.69;10545760;28;20044;-45
2022/11/08 05:25:47;;;;;;;;;;;;;;;19.84;51.68;96887.84;10549600;28;20106;-45
2022/11/08 05:31:07;;;;;;;1.67;1.40;;;;;;;19.86;51.52;96884.84;10503059;28;19920;-44
2022/11/08 05:36:27;;;;;;;1.52;1.40;;;;;;;19.84;51.73;96882.44;10497065;28;20053;-44
2022/11/08 05:41:47;;;;;;;2.20;1.80;;;;;;;19.84;51.96;96890.56;10507919;28;20044;-45
2022/11/08 05:47:06;;;;;;;1.38;1.27;;;;;;;19.85;52.15;96889.44;10494752;28;20052;-44
2022/11/08 05:52:25;;;;;;;1.88;1.48;;;;;;;19.86;52.27;96904.53;10496214;28;20053;-45
2022/11/08 05:57:45;;;;;;;1.48;1.38;;;;;;;19.87;52.35;96900.72;10542317;28;20051;-43
2022/11/08 06:03:05;;;;;;;1.60;1.48;;;;;;;19.86;52.52;96896.44;10535336;28;20044;-45
2022/11/08 06:08:24;;;;;;;2.38;1.40;;;;;;;19.89;52.37;96893.06;10515893;28;20056;-44
2022/11/08 06:13:44;;;;;;;2.70;1.60;;;;;;;19.90;52.43;96893.88;10512164;28;20504;-45
2022/11/08 06:19:03;;;;;;;1.52;1.20;;;;;;;19.92;52.61;96891.66;10504973;28;20411;-44
2022/11/08 06:24:23;;;;;;;1.98;1.40;;;;;;;19.93;52.63;96904.84;10531989;28;20040;-44
2022/11/08 06:29:42;;;;;;;2.13;1.40;;;;;;;19.94;52.78;96906.41;10518095;28;20101;-44
2022/11/08 06:35:02;;;;;;;2.42;1.55;;;;;;;19.97;52.74;96906.88;10527155;28;20052;-44
2022/11/08 06:40:21;;;;;;;2.70;1.70;;;;;;;19.98;52.82;96900.38;10503141;28;20051;-45
2022/11/08 06:45:41;;;;;;;3.35;1.80;;;;;;;20.00;53.01;96903.53;10495016;28;20052;-43
2022/11/08 06:51:00;;;;;;;2.70;1.60;;;;;;;20.02;52.93;96909.44;10509155;28;20403;-44
2022/11/08 06:56:20;;;;;;;2.20;1.48;;;;;;;20.02;52.93;96912.91;10505870;28;20055;-45
2022/11/08 07:01:39;;;;;;;4.88;1.90;;;;;;;20.04;52.80;96910.69;10465641;28;20052;-44
2022/11/08 07:06:58;;;;;;;9.45;3.30;;;;;;;20.07;52.84;96904.63;10519001;28;20045;-47
2022/11/08 07:12:18;;;;;;;10.07;3.72;;;;;;;20.09;52.83;96907.00;10507299;28;20066;-45
2022/11/08 07:17:37;;;;;;;14.73;4.80;;;;;;;20.10;52.86;96911.28;10518759;28;20500;-45
2022/11/08 07:22:57;;;;;;;15.07;5.07;;;;;;;20.12;52.81;96923.38;10522800;28;20044;-44
2022/11/08 07:28:18;;;;;;;18.38;5.35;;;;;;;20.15;52.81;96921.94;10521099;28;20056;-45
2022/11/08 07:33:37;;;;;;;18.45;5.30;;;;;;;20.17;52.64;96925.13;10504935;28;20099;-46
2022/11/08 07:38:57;;;;;;;17.92;5.10;;;;;;;20.20;52.75;96921.75;10507581;28;20048;-45
2022/11/08 07:44:16;;;;;;;14.15;5.03;;;;;;;20.24;52.77;96921.88;10522081;28;20105;-46
2022/11/08 07:49:35;;;;;;;16.90;5.40;;;;;;;20.25;52.69;96918.09;10527443;28;20052;-45
2022/11/08 07:54:55;;;;;;;17.48;5.50;;;;;;;20.26;52.77;96923.16;10515951;28;20454;-44
2022/11/08 08:00:15;;;;;;;15.32;5.47;;;;;;;20.28;52.71;96910.09;10516918;28;20056;-45
2022/11/08 08:05:36;;;;;;;13.68;4.60;;;;;;;20.32;52.74;96915.63;10497793;28;20118;-44
2022/11/08 08:10:58;;;;;;;14.10;4.80;;;;;;;20.33;52.74;96909.13;10514465;28;20041;-45
2022/11/08 08:16:18;;;;;;;10.07;3.95;;;;;;;20.34;52.71;96900.66;10503594;28;20061;-44
2022/11/08 08:21:37;;;;;;;16.35;5.10;;;;;;;20.37;52.66;96901.94;10536944;28;20052;-44
2022/11/08 08:26:56;;;;;;;13.82;4.75;;;;;;;20.40;52.69;96901.28;10506450;28;20056;-47
2022/11/08 08:32:16;;;;;;;11.95;4.63;;;;;;;20.42;52.66;96895.53;10506435;28;20045;-46
2022/11/08 08:37:36;;;;;;;13.18;4.68;;;;;;;20.45;52.67;96894.91;10528468;28;20064;-48
2022/11/08 08:42:59;;;;;;;9.98;4.18;;;;;;;20.47;52.67;96889.94;10539491;28;20403;-45
2022/11/08 08:48:19;;;;;;;11.43;4.65;;;;;;;20.50;52.67;96897.38;10532576;28;20052;-44
2022/11/08 08:53:39;;;;;;;9.75;4.03;;;;;;;20.52;52.61;96884.31;10510113;28;20048;-46
2022/11/08 08:58:59;;;;;;;10.93;4.55;;;;;;;20.53;52.51;96888.63;10547454;28;20036;-45
2022/11/08 09:04:18;;;;;;;10.30;4.13;;;;;;;20.57;52.63;96889.56;10540179;28;20060;-46
2022/11/08 09:09:37;;;;;;;10.07;3.72;;;;;;;20.57;52.64;96889.56;10514576;28;20052;-46
2022/11/08 09:14:57;;;;;;;10.52;4.00;;;;;;;20.59;52.87;96897.34;10511809;28;20120;-45
2022/11/08 09:20:16;;;;;;;9.57;3.78;;;;;;;20.61;52.82;96887.81;10529074;28;20052;-45
2022/11/08 09:25:36;;;;;;;9.15;4.10;;;;;;;20.63;53.03;96888.28;10539233;28;20518;-44
2022/11/08 09:31:01;;;;;;;10.27;3.78;;;;;;;20.65;53.07;96882.53;10538892;28;20399;-45
2022/11/08 09:36:21;;;;;;;6.88;3.70;;;;;;;20.66;53.01;96884.91;10531691;28;20056;-46
2022/11/08 09:41:40;;;;;;;9.60;3.97;;;;;;;20.69;52.88;96878.03;10511179;28;20052;-45
2022/11/08 09:47:13;;;;;;;7.10;3.95;;;;;;;20.71;53.01;96873.09;10528116;28;20059;-46
2022/11/08 09:52:33;;;;;;;6.72;3.25;;;;;;;20.72;52.96;96875.47;10526326;28;20044;-44
2022/11/08 09:58:21;;;;;;;8.32;3.50;;;;;;;20.74;52.91;96878.66;10530459;28;20110;-45
2022/11/08 10:03:47;;;;;;;6.95;3.28;;;;;;;20.76;52.85;96875.63;10541915;28;20048;-44
2022/11/08 10:09:27;;;;;;;6.97;3.30;;;;;;;20.79;52.93;96876.84;10522217;28;20052;-44
2022/11/08 10:14:55;;;;;;;7.90;3.42;;;;;;;20.78;52.81;96862.53;10550663;28;20388;-44
2022/11/08 10:20:23;;;;;;;7.03;3.45;;;;;;;20.81;52.88;96863.78;10506921;28;20045;-45
2022/11/08 10:25:50;;;;;;;6.43;3.45;;;;;;;20.82;52.86;96849.13;10511477;28;20048;-44
2022/11/08 10:31:13;;;;;;;7.05;2.95;;;;;;;20.85;53.26;96848.47;10528719;28;20048;-45
2022/11/08 10:36:53;;;;;;;5.43;3.50;;;;;;;20.87;53.44;96838.88;10517910;28;20121;-49
2022/11/08 10:42:19;;;;;;;9.20;3.05;;;;;;;20.87;53.32;96833.44;10492241;28;20492;-46
2022/11/08 10:47:39;;;;;;;5.88;3.00;;;;;;;20.88;53.35;96826.16;10519552;28;20063;-49
2022/11/08 10:53:00;;;;;;;5.50;2.72;;;;;;;20.89;53.28;96820.38;10537151;28;20071;-44
2022/11/08 10:58:28;;;;;;;6.35;2.97;;;;;;;20.90;53.27;96803.03;10503977;28;20117;-45
2022/11/08 11:03:50;;;;;;;4.93;3.10;;;;;;;20.91;53.12;96803.81;10509537;28;20519;-44
2022/11/08 11:09:19;;;;;;;9.48;3.15;;;;;;;20.90;53.24;96785.97;10531901;28;20399;-45
2022/11/08 11:14:39;;;;;;;5.93;3.22;;;;;;;20.91;53.24;96779.44;10523141;28;20052;-44
2022/11/08 11:20:00;;;;;;;6.38;2.95;;;;;;;20.90;53.13;96767.03;10532772;28;20495;-45
2022/11/08 11:25:22;;;;;;;5.70;2.85;;;;;;;20.91;53.13;96784.84;10531856;28;20052;-45
2022/11/08 11:30:46;;;;;;;3.28;2.20;;;;;;;20.93;53.00;96790.72;10530086;28;20056;-45
2022/11/08 11:36:06;;;;;;;5.53;2.67;;;;;;;20.91;53.10;96777.53;10520005;28;20070;-47
2022/11/08 11:41:41;;;;;;;4.47;2.28;;;;;;;20.92;52.93;96775.59;10493200;28;20151;-46
2022/11/08 11:47:10;;;;;;;5.00;2.90;;;;;;;20.92;53.06;96767.50;10524460;28;20040;-44
2022/11/08 11:52:30;;;;;;;3.90;2.38;;;;;;;20.90;52.97;96764.31;10512794;28;20514;-44
2022/11/08 11:58:02;;;;;;;4.47;2.60;;;;;;;20.90;52.99;96753.50;10498882;28;20063;-45
2022/11/08 12:03:22;;;;;;;3.28;2.15;;;;;;;20.90;53.03;96756.97;10511850;28;20055;-44
2022/11/08 12:08:50;;;;;;;5.95;2.78;;;;;;;20.91;53.18;96753.16;10516604;28;20063;-44
2022/11/08 12:14:28;;;;;;;;;;;;;;;20.90;52.64;96746.16;10544108;28;20483;-43
2022/11/08 12:20:17;;;;;;;5.30;2.42;;;;;;;20.89;52.91;96730.22;10533616;28;19929;-43
2022/11/08 12:25:36;;;;;;;;;;;;;;;20.88;53.04;96732.16;10514522;28;20411;-44
2022/11/08 12:31:19;;;;;;;5.22;2.28;;;;;;;20.89;53.07;96716.69;10536982;28;19920;-45
2022/11/08 12:36:53;;;;;;;3.55;2.17;;;;;;;20.88;53.13;96721.31;10520502;28;20052;-45
2022/11/08 12:42:25;;;;;;;3.72;2.10;;;;;;;20.89;53.73;96708.56;10521655;28;20051;-44
2022/11/08 12:47:56;;;;;;;3.33;1.83;;;;;;;20.88;53.73;96710.50;10543315;28;20399;-46
2022/11/08 12:53:33;;;;;;;3.45;2.03;;;;;;;20.88;53.56;96715.91;10497974;28;20041;-44
2022/11/08 12:58:53;;;;;;;3.80;1.63;;;;;;;20.87;52.82;96718.94;10532473;28;20059;-47
2022/11/08 13:04:17;;;;;;;3.78;1.90;;;;;;;20.86;52.52;96712.75;10508802;28;20062;-44
2022/11/08 13:09:48;;;;;;;2.42;1.60;;;;;;;20.86;52.12;96718.16;10538743;28;20062;-45
2022/11/08 13:15:23;;;;;;;2.90;1.52;;;;;;;20.86;51.82;96720.88;10524961;28;20059;-46
2022/11/08 13:20:47;;;;;;;2.58;1.70;;;;;;;20.84;51.50;96716.91;10529505;28;20044;-44
2022/11/08 13:26:36;;;;;;;2.25;1.60;;;;;;;20.83;51.47;96715.31;10552481;28;20097;-45
2022/11/08 13:31:56;;;;;;;2.75;1.60;;;;;;;20.83;51.38;96718.03;10515465;28;20052;-44
2022/11/08 13:37:33;;;;;;;2.40;1.30;;;;;;;20.82;51.21;96713.75;10528737;28;20479;-46
2022/11/08 13:43:15;;;;;;;3.13;1.60;;;;;;;20.80;51.09;96705.97;10526246;28;20051;-46
2022/11/08 13:48:41;;;;;;;2.58;1.35;;;;;;;20.80;50.89;96707.88;10540316;28;20032;-46
2022/11/08 13:54:22;;;;;;;3.00;1.45;;;;;;;20.78;50.71;96710.13;10516126;28;20448;-46
2022/11/08 13:59:41;;;;;;;1.60;1.17;;;;;;;20.77;50.66;96692.31;10507884;28;20530;-44
2022/11/08 14:05:14;;;;;;;1.45;1.30;;;;;;;20.75;50.46;96689.91;10530104;28;20055;-45
2022/11/08 14:11:00;;;;;;;2.13;1.30;;;;;;;20.74;50.29;96689.13;10512834;28;20048;-45
2022/11/08 14:16:24;;;;;;;2.53;1.35;;;;;;;20.73;50.24;96684.84;10510963;28;20114;-44
2022/11/08 14:21:55;;;;;;;1.95;1.10;;;;;;;20.72;50.10;96680.56;10493281;28;20048;-44
2022/11/08 14:27:31;;;;;;;1.60;1.27;;;;;;;20.72;50.01;96674.38;10493243;28;20051;-46
2022/11/08 14:33:15;;;;;;;1.80;1.40;;;;;;;20.70;49.82;96685.53;10535371;28;20083;-46
2022/11/08 14:38:37;;;;;;;3.72;1.30;;;;;;;20.70;49.71;96682.03;10496604;28;20057;-46
2022/11/08 14:43:58;;;;;;;1.70;1.20;;;;;;;20.68;49.67;96678.84;10511136;28;20056;-45
2022/11/08 14:49:29;;;;;;;1.75;1.27;;;;;;;20.67;49.68;96678.06;10493002;28;20492;-48
2022/11/08 14:54:59;;;;;;;1.88;1.20;;;;;;;20.66;49.46;96679.19;10516521;28;20142;-45
2022/11/08 15:00:25;;;;;;;1.30;1.15;;;;;;;20.65;49.20;96683.00;10515826;28;20060;-46
2022/11/08 15:05:56;;;;;;;1.25;1.10;;;;;;;20.67;48.82;96682.69;10507537;28;20033;-45
2022/11/08 15:11:28;;;;;;;1.70;1.30;;;;;;;20.65;48.38;96661.34;10489642;28;20044;-46
2022/11/08 15:16:50;;;;;;;2.03;1.33;;;;;;;20.64;48.19;96667.91;10523300;28;20526;-48
2022/11/08 15:22:39;;;;;;;1.27;1.05;;;;;;;20.62;47.41;96664.75;10530485;28;20101;-44
2022/11/08 15:28:15;;;;;;;2.63;1.15;;;;;;;20.61;47.32;96665.06;10521483;28;20052;-46
2022/11/08 15:33:36;;;;;;;1.92;1.10;;;;;;;20.59;47.22;96670.81;10481899;28;20067;-45
2022/11/08 15:38:55;;;;;;;1.75;1.10;;;;;;;20.56;47.07;96666.03;10519347;28;20059;-47
2022/11/08 15:44:22;;;;;;;2.88;1.13;;;;;;;20.54;46.75;96669.09;10532192;28;20047;-44
2022/11/08 15:49:44;;;;;;;1.50;1.13;;;;;;;20.53;46.57;96655.88;10546760;28;20047;-46
2022/11/08 15:55:04;;;;;;;1.55;1.13;;;;;;;20.51;46.38;96658.91;10502726;28;20060;-44
2022/11/08 16:00:47;;;;;;;2.45;1.60;;;;;;;20.51;46.17;96652.72;10521935;28;20538;-44
2022/11/08 16:06:10;;;;;;;1.75;1.45;;;;;;;20.49;46.17;96660.38;10495972;28;20052;-44
2022/11/08 16:11:31;;;;;;;2.22;1.60;;;;;;;20.49;46.03;96663.88;10507090;28;20045;-45
2022/11/08 16:16:50;;;;;;;1.80;1.65;;;;;;;20.47;46.33;96657.22;10500517;28;20499;-45
2022/11/08 16:22:10;;;;;;;2.15;1.77;;;;;;;20.46;46.83;96667.25;10511092;28;20458;-43
2022/11/08 16:27:29;;;;;;;3.08;1.67;;;;;;;20.46;47.48;96651.00;10517870;28;20496;-45
2022/11/08 16:32:49;;;;;;;1.90;1.50;;;;;;;20.47;48.15;96655.31;10501009;28;20056;-47
2022/11/08 16:38:09;;;;;;;3.20;1.52;;;;;;;20.49;48.69;96665.81;10516561;28;20397;-46
2022/11/08 16:43:29;;;;;;;5.10;1.90;;;;;;;20.50;49.10;96664.66;10499615;28;20056;-46
2022/11/08 16:48:53;;;;;;;2.35;1.50;;;;;;;20.50;49.51;96656.53;10521727;28;20063;-44
2022/11/08 16:54:19;;;;;;;2.53;1.58;;;;;;;20.52;49.74;96662.41;10498127;28;20060;-46
2022/11/08 16:59:38;;;;;;;2.95;1.50;;;;;;;20.53;49.95;96661.31;10541373;28;20043;-43
2022/11/08 17:04:58;;;;;;;1.83;1.30;;;;;;;20.52;50.10;96671.34;10512641;28;20059;-45
2022/11/08 17:10:26;;;;;;;2.67;1.60;;;;;;;20.55;50.13;96669.88;10523138;28;20060;-46
2022/11/08 17:15:48;;;;;;;3.07;1.70;;;;;;;20.54;50.34;96674.50;10553797;28;20093;-43
2022/11/08 17:21:08;;;;;;;1.98;1.55;;;;;;;20.57;50.41;96673.03;10514433;28;20785;-47
2022/11/08 17:26:28;;;;;;;1.70;1.33;;;;;;;20.58;50.49;96676.53;10546905;28;20051;-48
2022/11/08 17:31:48;;;;;;;1.92;1.35;;;;;;;20.59;50.51;96683.53;10511841;28;20056;-46
2022/11/08 17:37:08;;;;;;;2.95;1.40;;;;;;;20.60;50.61;96688.66;10499533;28;20059;-47
2022/11/08 17:42:28;;;;;;;1.45;1.33;;;;;;;20.61;50.65;96692.16;10522256;28;20102;-45
2022/11/08 17:47:47;;;;;;;1.98;1.58;;;;;;;20.62;50.90;96697.22;10525174;28;20055;-45
2022/11/08 17:53:06;;;;;;;1.60;1.50;;;;;;;20.64;51.19;96694.97;10512766;28;20047;-45
2022/11/08 17:58:26;;;;;;;2.45;1.48;;;;;;;20.65;51.26;96693.84;10511238;28;20059;-47
2022/11/08 18:03:46;;;;;;;1.67;1.50;;;;;;;20.66;51.29;96702.75;10479844;28;20063;-45
2022/11/08 18:09:07;;;;;;;2.50;1.50;;;;;;;20.67;51.48;96697.00;10505729;28;20105;-44
2022/11/08 18:14:27;;;;;;;2.90;1.50;;;;;;;20.68;51.58;96695.91;10520526;28;20089;-48
2022/11/08 18:19:46;;;;;;;2.92;1.80;;;;;;;20.70;51.70;96692.84;10474649;28;20041;-46
2022/11/08 18:25:06;;;;;;;2.50;1.60;;;;;;;20.72;51.81;96702.22;10504427;28;20062;-46
2022/11/08 18:30:26;;;;;;;3.63;1.80;;;;;;;20.73;52.08;96701.06;10507048;28;20056;-43
2022/11/08 18:35:46;;;;;;;3.00;1.50;;;;;;;20.73;52.14;96698.38;10522437;28;20056;-47
2022/11/08 18:41:07;;;;;;;2.90;1.50;;;;;;;20.74;52.38;96699.97;10513049;28;20044;-48
2022/11/08 18:46:31;;;;;;;2.13;1.50;;;;;;;20.76;52.29;96705.06;10519427;28;20098;-48
2022/11/08 18:51:52;;;;;;;3.65;1.70;;;;;;;20.77;52.43;96708.53;10524832;28;20415;-46
2022/11/08 18:57:11;;;;;;;15.60;1.60;;;;;;;20.78;52.53;96708.22;10532217;28;20101;-46
2022/11/08 19:02:31;;;;;;;2.95;1.60;;;;;;;20.80;52.61;96716.78;10520824;28;20487;-49
2022/11/08 19:07:50;;;;;;;4.50;1.60;;;;;;;20.81;52.64;96720.28;10532452;28;20108;-47
2022/11/08 19:13:10;;;;;;;2.20;1.55;;;;;;;20.82;52.81;96721.88;10527421;28;20488;-44
2022/11/08 19:18:30;;;;;;;2.50;1.75;;;;;;;20.83;52.81;96724.22;10503750;28;20060;-47
2022/11/08 19:23:51;;;;;;;4.40;1.42;;;;;;;20.84;52.75;96728.53;10476945;28;20044;-50
2022/11/08 19:29:13;;;;;;;2.53;1.52;;;;;;;20.85;52.94;96729.31;10502448;28;20097;-45
2022/11/08 19:34:32;;;;;;;3.30;1.70;;;;;;;20.87;52.85;96746.03;10495713;28;20044;-49
2022/11/08 19:39:52;;;;;;;2.28;1.50;;;;;;;20.87;52.96;96749.50;10496457;28;20380;-44
2022/11/08 19:45:11;;;;;;;4.85;1.70;;;;;;;20.87;52.99;96746.81;10517787;28;20052;-45
2022/11/08 19:50:30;;;;;;;2.50;1.40;;;;;;;20.90;53.03;96739.94;10506227;28;20504;-45
2022/11/08 19:55:57;;;;;;;2.33;1.50;;;;;;;20.90;52.95;96743.44;10502088;28;20056;-46
2022/11/08 20:01:19;;;;;;;1.52;1.15;;;;;;;20.91;52.88;96741.53;10502805;28;20101;-46
2022/11/08 20:06:39;;;;;;;1.73;1.42;;;;;;;20.92;52.88;96737.69;10533802;28;20093;-46
2022/11/08 20:11:59;;;;;;;3.00;1.20;;;;;;;20.94;53.09;96730.03;10526457;28;20040;-46
2022/11/08 20:17:20;;;;;;;4.00;1.52;;;;;;;20.94;53.05;96736.22;10517933;28;20066;-46
2022/11/08 20:22:40;;;;;;;3.38;1.42;;;;;;;20.97;53.09;96745.59;10464598;28;20066;-44
2022/11/08 20:28:00;;;;;;;3.13;1.45;;;;;;;20.96;53.27;96735.13;10493475;28;20060;-46
2022/11/08 20:33:20;;;;;;;5.43;1.20;;;;;;;20.96;53.44;96732.41;10512132;28;20086;-47
2022/11/08 20:38:40;;;;;;;3.45;1.60;;;;;;;20.94;53.53;96730.81;10545112;28;20052;-44
2022/11/08 20:44:01;;;;;;;3.10;1.55;;;;;;;20.95;53.31;96739.72;10536765;28;20101;-48
2022/11/08 20:49:21;;;;;;;2.63;1.20;;;;;;;20.96;53.57;96729.69;10492668;28;20060;-47
2022/11/08 20:54:41;;;;;;;3.75;1.58;;;;;;;20.97;53.44;96723.94;10523117;28;20518;-45
2022/11/08 21:00:02;;;;;;;2.78;1.50;;;;;;;20.97;53.46;96723.16;10546152;28;20051;-46
2022/11/08 21:05:22;;;;;;;2.47;1.35;;;;;;;20.96;53.73;96727.00;10526391;28;20500;-47
2022/11/08 21:10:43;;;;;;;2.95;1.40;;;;;;;20.97;53.45;96731.28;10491117;28;20040;-44
2022/11/08 21:16:05;;;;;;;1.77;1.35;;;;;;;20.96;53.68;96733.19;10522217;28;20059;-45
2022/11/08 21:21:26;;;;;;;4.50;1.77;;;;;;;20.95;53.69;96734.31;10514954;28;20055;-45
2022/11/08 21:26:45;;;;;;;3.20;1.60;;;;;;;20.94;53.72;96732.75;10506722;28;20465;-44
2022/11/08 21:32:05;;;;;;;5.25;1.60;;;;;;;20.93;53.74;96734.66;10546574;28;20487;-47
2022/11/08 21:37:24;;;;;;;2.55;1.50;;;;;;;20.93;53.65;96725.72;10525958;28;20074;-44
2022/11/08 21:42:44;;;;;;;2.33;1.58;;;;;;;20.91;53.83;96726.09;10531210;28;20051;-45
2022/11/08 21:48:04;;;;;;;3.03;1.55;;;;;;;20.91;53.80;96730.69;10524846;28;20041;-45
2022/11/08 21:53:23;;;;;;;2.28;1.40;;;;;;;20.91;53.95;96736.09;10473191;28;20094;-46
2022/11/08 21:58:42;;;;;;;3.15;1.60;;;;;;;20.90;53.78;96737.25;10505861;28;20047;-45
2022/11/08 22:04:01;;;;;;;1.50;1.40;;;;;;;20.88;53.69;96736.78;10472009;28;20045;-45
2022/11/08 22:09:21;;;;;;;2.10;1.33;;;;;;;20.88;53.67;96744.91;10473325;28;20423;-44
2022/11/08 22:14:40;;;;;;;2.22;1.58;;;;;;;20.87;53.43;96729.78;10506248;28;20056;-46
2022/11/08 22:20:00;;;;;;;1.58;1.30;;;;;;;20.86;53.42;96733.63;10513732;28;20048;-46
2022/11/08 22:25:19;;;;;;;1.73;1.40;;;;;;;20.85;53.50;96742.84;10500714;28;20053;-45
2022/11/08 22:30:39;;;;;;;1.95;1.38;;;;;;;20.84;53.53;96741.28;10523835;28;20052;-45
2022/11/08 22:35:58;;;;;;;2.78;1.50;;;;;;;20.83;53.50;96737.00;10530093;28;20495;-44
2022/11/08 22:41:19;;;;;;;1.65;1.42;;;;;;;20.82;53.40;96744.31;10498457;28;20052;-47
2022/11/08 22:46:40;;;;;;;3.03;1.55;;;;;;;20.80;53.45;96749.28;10531719;28;20491;-44
2022/11/08 22:51:59;;;;;;;1.50;1.30;;;;;;;20.80;53.48;96733.03;10513092;28;20052;-45
2022/11/08 22:57:18;;;;;;;1.60;1.42;;;;;;;20.78;53.39;96737.19;10508915;28;20060;-44
2022/11/08 23:02:37;;;;;;;3.45;1.40;;;;;;;20.77;53.46;96735.63;10510131;28;20442;-47
2022/11/08 23:07:58;;;;;;;2.25;1.45;;;;;;;20.74;53.35;96743.28;10516768;28;20437;-44
2022/11/08 23:24:35;;;;;;;1.67;1.30;;;;;;;20.71;53.24;96741.22;10539668;28;20063;-48
2022/11/08 23:35:34;;;;;;;2.17;1.50;;;;;;;20.69;53.25;96729.94;10519124;28;20105;-45
2022/11/08 23:46:35;;;;;;;1.73;1.52;;;;;;;20.66;53.25;96708.16;10525282;28;20050;-49
2022/11/08 23:51:55;;;;;;;2.00;1.65;;;;;;;20.65;53.33;96707.38;10532651;28;20391;-49
2022/11/08 23:57:14;;;;;;;2.00;1.33;;;;;;;20.64;53.13;96705.00;10483211;28;20052;-48
